sensor_id;sensor_type;location;lat;lon;timestamp;temperature;humidity
27164;DHT22;14685;50.618;7.024;2023-05-01T00:02:00;16.20;99.90
27164;DHT22;14685;50.618;7.024;2023-05-01T00:04:27;16.20;99.90
27164;DHT22;14685;50.618;7.024;2023-05-01T00:06:55;16.10;99.90
27164;DHT22;14685;50.618;7.024;2023-05-01T00:09:22;16.10;99.90
27164;DHT22;14685;50.618;7.024;2023-05-01T00:11:49;16.10;99.90
27164;DHT22;14685;50.618;7.024;2023-05-01T00:14:16;16.10;99.90
27164;DHT22;14685;50.618;7.024;2023-05-01T00:16:43;16.00;99.90
27164;DHT22;14685;50.618;7.024;2023-05-01T00:19:12;16.00;99.90
27164;DHT22;14685;50.618;7.024;2023-05-01T00:21:47;16.00;99.90
27164;DHT22;14685;50.618;7.024;2023-05-01T00:24:14;16.00;99.90
27164;DHT22;14685;50.618;7.024;2023-05-01T00:26:43;16.00;99.90
27164;DHT22;14685;50.618;7.024;2023-05-01T00:29:11;15.90;99.90
27164;DHT22;14685;50.618;7.024;2023-05-01T00:31:38;15.90;99.90
27164;DHT22;14685;50.618;7.024;2023-05-01T00:34:07;15.90;99.90
27164;DHT22;14685;50.618;7.024;2023-05-01T00:36:39;15.90;99.90
27164;DHT22;14685;50.618;7.024;2023-05-01T00:39:06;15.80;99.90
27164;DHT22;14685;50.618;7.024;2023-05-01T00:41:34;15.80;99.90
27164;DHT22;14685;50.618;7.024;2023-05-01T00:44:03;15.80;99.90
27164;DHT22;14685;50.618;7.024;2023-05-01T00:46:31;15.80;99.90
27164;DHT22;14685;50.618;7.024;2023-05-01T00:48:59;15.80;99.90
27164;DHT22;14685;50.618;7.024;2023-05-01T00:51:28;15.80;99.90
27164;DHT22;14685;50.618;7.024;2023-05-01T00:53:58;15.80;99.90
27164;DHT22;14685;50.618;7.024;2023-05-01T00:56:25;15.80;99.90
27164;DHT22;14685;50.618;7.024;2023-05-01T00:58:53;15.70;99.90
27164;DHT22;14685;50.618;7.024;2023-05-01T01:01:24;15.70;99.90
27164;DHT22;14685;50.618;7.024;2023-05-01T01:03:56;15.70;99.90
27164;DHT22;14685;50.618;7.024;2023-05-01T01:07:46;15.70;99.90
27164;DHT22;14685;50.618;7.024;2023-05-01T01:12:37;15.70;99.90
27164;DHT22;14685;50.618;7.024;2023-05-01T01:15:31;15.60;99.90
27164;DHT22;14685;50.618;7.024;2023-05-01T01:18:07;15.60;99.90
27164;DHT22;14685;50.618;7.024;2023-05-01T01:20:58;15.50;99.90
27164;DHT22;14685;50.618;7.024;2023-05-01T01:26:44;15.50;99.90
27164;DHT22;14685;50.618;7.024;2023-05-01T01:35:17;15.50;99.90
27164;DHT22;14685;50.618;7.024;2023-05-01T01:37:47;15.50;99.90
27164;DHT22;14685;50.618;7.024;2023-05-01T01:40:18;15.40;99.90
27164;DHT22;14685;50.618;7.024;2023-05-01T01:42:52;15.40;99.90
27164;DHT22;14685;50.618;7.024;2023-05-01T01:45:22;15.40;99.90
27164;DHT22;14685;50.618;7.024;2023-05-01T01:47:50;15.40;99.90
27164;DHT22;14685;50.618;7.024;2023-05-01T01:50:23;15.40;99.90
27164;DHT22;14685;50.618;7.024;2023-05-01T01:52:52;15.30;99.90
27164;DHT22;14685;50.618;7.024;2023-05-01T01:55:22;15.30;99.90
27164;DHT22;14685;50.618;7.024;2023-05-01T01:57:51;15.30;99.90
27164;DHT22;14685;50.618;7.024;2023-05-01T02:00:19;15.30;99.90
27164;DHT22;14685;50.618;7.024;2023-05-01T02:02:48;15.30;99.90
27164;DHT22;14685;50.618;7.024;2023-05-01T02:05:17;15.30;99.90
27164;DHT22;14685;50.618;7.024;2023-05-01T02:07:47;15.30;99.90
27164;DHT22;14685;50.618;7.024;2023-05-01T02:10:15;15.30;99.90
27164;DHT22;14685;50.618;7.024;2023-05-01T02:12:47;15.20;99.90
27164;DHT22;14685;50.618;7.024;2023-05-01T02:15:17;15.20;99.90
27164;DHT22;14685;50.618;7.024;2023-05-01T02:17:48;15.20;99.90
27164;DHT22;14685;50.618;7.024;2023-05-01T02:20:16;15.20;99.90
27164;DHT22;14685;50.618;7.024;2023-05-01T02:22:45;15.10;99.90
27164;DHT22;14685;50.618;7.024;2023-05-01T02:25:13;15.10;99.90
27164;DHT22;14685;50.618;7.024;2023-05-01T02:28:02;15.10;99.90
27164;DHT22;14685;50.618;7.024;2023-05-01T02:30:33;15.10;99.90
27164;DHT22;14685;50.618;7.024;2023-05-01T02:33:00;15.00;99.90
27164;DHT22;14685;50.618;7.024;2023-05-01T02:35:27;15.00;99.90
27164;DHT22;14685;50.618;7.024;2023-05-01T02:37:54;15.10;99.90
27164;DHT22;14685;50.618;7.024;2023-05-01T02:40:21;15.00;99.90
27164;DHT22;14685;50.618;7.024;2023-05-01T02:42:48;15.00;99.90
27164;DHT22;14685;50.618;7.024;2023-05-01T02:45:18;15.00;99.90
27164;DHT22;14685;50.618;7.024;2023-05-01T02:47:50;15.00;99.90
27164;DHT22;14685;50.618;7.024;2023-05-01T02:50:18;15.00;99.90
27164;DHT22;14685;50.618;7.024;2023-05-01T02:52:48;15.00;99.90
27164;DHT22;14685;50.618;7.024;2023-05-01T02:55:17;15.00;99.90
27164;DHT22;14685;50.618;7.024;2023-05-01T02:57:49;15.00;99.90
27164;DHT22;14685;50.618;7.024;2023-05-01T03:00:16;15.00;99.90
27164;DHT22;14685;50.618;7.024;2023-05-01T03:02:45;14.90;99.90
27164;DHT22;14685;50.618;7.024;2023-05-01T03:05:12;15.00;99.90
27164;DHT22;14685;50.618;7.024;2023-05-01T03:07:39;14.90;99.90
27164;DHT22;14685;50.618;7.024;2023-05-01T03:10:08;14.90;99.90
27164;DHT22;14685;50.618;7.024;2023-05-01T03:12:36;14.90;99.90
27164;DHT22;14685;50.618;7.024;2023-05-01T03:15:04;14.90;99.90
27164;DHT22;14685;50.618;7.024;2023-05-01T03:17:34;14.90;99.90
27164;DHT22;14685;50.618;7.024;2023-05-01T03:20:01;14.90;99.90
27164;DHT22;14685;50.618;7.024;2023-05-01T03:22:28;14.90;99.90
27164;DHT22;14685;50.618;7.024;2023-05-01T03:24:59;14.80;99.90
27164;DHT22;14685;50.618;7.024;2023-05-01T03:27:27;14.90;99.90
27164;DHT22;14685;50.618;7.024;2023-05-01T03:29:55;14.80;99.90
27164;DHT22;14685;50.618;7.024;2023-05-01T03:32:23;14.80;99.90
27164;DHT22;14685;50.618;7.024;2023-05-01T03:34:50;14.80;99.90
27164;DHT22;14685;50.618;7.024;2023-05-01T03:37:18;14.70;99.90
27164;DHT22;14685;50.618;7.024;2023-05-01T03:39:45;14.70;99.90
27164;DHT22;14685;50.618;7.024;2023-05-01T03:42:12;14.70;99.90
27164;DHT22;14685;50.618;7.024;2023-05-01T03:44:39;14.70;99.90
27164;DHT22;14685;50.618;7.024;2023-05-01T03:47:06;14.70;99.90
27164;DHT22;14685;50.618;7.024;2023-05-01T03:49:33;14.60;99.90
27164;DHT22;14685;50.618;7.024;2023-05-01T03:52:01;14.60;99.90
27164;DHT22;14685;50.618;7.024;2023-05-01T03:54:29;14.50;99.90
27164;DHT22;14685;50.618;7.024;2023-05-01T03:56:56;14.40;99.90
27164;DHT22;14685;50.618;7.024;2023-05-01T03:59:24;14.30;99.90
27164;DHT22;14685;50.618;7.024;2023-05-01T04:01:51;14.30;99.90
27164;DHT22;14685;50.618;7.024;2023-05-01T04:04:18;14.30;99.90
27164;DHT22;14685;50.618;7.024;2023-05-01T04:06:45;14.30;99.90
27164;DHT22;14685;50.618;7.024;2023-05-01T04:09:15;14.20;99.90
27164;DHT22;14685;50.618;7.024;2023-05-01T04:11:50;14.20;99.90
27164;DHT22;14685;50.618;7.024;2023-05-01T04:14:17;14.00;99.90
27164;DHT22;14685;50.618;7.024;2023-05-01T04:16:47;14.00;99.90
27164;DHT22;14685;50.618;7.024;2023-05-01T04:19:15;13.80;99.90
27164;DHT22;14685;50.618;7.024;2023-05-01T04:21:42;13.80;99.90
27164;DHT22;14685;50.618;7.024;2023-05-01T04:24:12;13.70;99.90
27164;DHT22;14685;50.618;7.024;2023-05-01T04:26:39;13.70;99.90
27164;DHT22;14685;50.618;7.024;2023-05-01T04:29:08;13.80;99.90
27164;DHT22;14685;50.618;7.024;2023-05-01T04:31:35;13.80;99.90
27164;DHT22;14685;50.618;7.024;2023-05-01T04:34:02;13.80;99.90
27164;DHT22;14685;50.618;7.024;2023-05-01T04:36:30;13.70;99.90
27164;DHT22;14685;50.618;7.024;2023-05-01T04:38:58;13.70;99.90
27164;DHT22;14685;50.618;7.024;2023-05-01T04:41:25;13.80;99.90
27164;DHT22;14685;50.618;7.024;2023-05-01T04:43:52;13.70;99.90
27164;DHT22;14685;50.618;7.024;2023-05-01T04:46:20;13.70;99.90
27164;DHT22;14685;50.618;7.024;2023-05-01T04:48:47;13.70;99.90
27164;DHT22;14685;50.618;7.024;2023-05-01T04:51:14;13.70;99.90
27164;DHT22;14685;50.618;7.024;2023-05-01T04:53:43;13.70;99.90
27164;DHT22;14685;50.618;7.024;2023-05-01T04:56:10;13.60;99.90
27164;DHT22;14685;50.618;7.024;2023-05-01T04:58:37;13.50;99.90
27164;DHT22;14685;50.618;7.024;2023-05-01T05:01:04;13.50;99.90
27164;DHT22;14685;50.618;7.024;2023-05-01T05:03:31;13.50;99.90
27164;DHT22;14685;50.618;7.024;2023-05-01T05:05:58;13.50;99.90
27164;DHT22;14685;50.618;7.024;2023-05-01T05:08:28;13.50;99.90
27164;DHT22;14685;50.618;7.024;2023-05-01T05:10:58;13.50;99.90
27164;DHT22;14685;50.618;7.024;2023-05-01T05:13:26;13.50;99.90
27164;DHT22;14685;50.618;7.024;2023-05-01T05:15:53;13.50;99.90
27164;DHT22;14685;50.618;7.024;2023-05-01T05:18:21;13.50;99.90
27164;DHT22;14685;50.618;7.024;2023-05-01T05:20:48;13.50;99.90
27164;DHT22;14685;50.618;7.024;2023-05-01T05:23:15;13.50;99.90
27164;DHT22;14685;50.618;7.024;2023-05-01T05:25:45;13.50;99.90
27164;DHT22;14685;50.618;7.024;2023-05-01T05:28:12;13.40;99.90
27164;DHT22;14685;50.618;7.024;2023-05-01T05:30:40;13.40;99.90
27164;DHT22;14685;50.618;7.024;2023-05-01T05:33:07;13.30;99.90
27164;DHT22;14685;50.618;7.024;2023-05-01T05:35:40;13.40;99.90
27164;DHT22;14685;50.618;7.024;2023-05-01T05:38:06;13.40;99.90
27164;DHT22;14685;50.618;7.024;2023-05-01T05:40:33;13.40;99.90
27164;DHT22;14685;50.618;7.024;2023-05-01T05:43:00;13.40;99.90
27164;DHT22;14685;50.618;7.024;2023-05-01T05:45:28;13.50;99.90
27164;DHT22;14685;50.618;7.024;2023-05-01T05:47:55;13.50;99.90
27164;DHT22;14685;50.618;7.024;2023-05-01T05:50:23;13.50;99.90
27164;DHT22;14685;50.618;7.024;2023-05-01T05:52:51;13.50;99.90
27164;DHT22;14685;50.618;7.024;2023-05-01T05:55:18;13.50;99.90
27164;DHT22;14685;50.618;7.024;2023-05-01T05:57:45;13.50;99.90
27164;DHT22;14685;50.618;7.024;2023-05-01T06:00:12;13.50;99.90
27164;DHT22;14685;50.618;7.024;2023-05-01T06:02:40;13.50;99.90
27164;DHT22;14685;50.618;7.024;2023-05-01T06:05:10;13.50;99.90
27164;DHT22;14685;50.618;7.024;2023-05-01T06:07:37;13.60;99.90
27164;DHT22;14685;50.618;7.024;2023-05-01T06:10:04;13.60;99.90
27164;DHT22;14685;50.618;7.024;2023-05-01T06:12:32;13.50;99.90
27164;DHT22;14685;50.618;7.024;2023-05-01T06:15:03;13.50;99.90
27164;DHT22;14685;50.618;7.024;2023-05-01T06:17:30;13.60;99.90
27164;DHT22;14685;50.618;7.024;2023-05-01T06:19:59;13.60;99.90
27164;DHT22;14685;50.618;7.024;2023-05-01T06:22:27;13.70;99.90
27164;DHT22;14685;50.618;7.024;2023-05-01T06:24:55;13.70;99.90
27164;DHT22;14685;50.618;7.024;2023-05-01T06:27:22;13.70;99.90
27164;DHT22;14685;50.618;7.024;2023-05-01T06:29:50;13.70;99.90
27164;DHT22;14685;50.618;7.024;2023-05-01T06:32:17;13.70;99.90
27164;DHT22;14685;50.618;7.024;2023-05-01T06:34:44;13.70;99.90
27164;DHT22;14685;50.618;7.024;2023-05-01T06:37:17;13.70;99.90
27164;DHT22;14685;50.618;7.024;2023-05-01T06:39:47;13.80;99.90
27164;DHT22;14685;50.618;7.024;2023-05-01T06:42:14;13.80;99.90
27164;DHT22;14685;50.618;7.024;2023-05-01T06:44:42;13.90;99.90
27164;DHT22;14685;50.618;7.024;2023-05-01T06:47:10;13.90;99.90
27164;DHT22;14685;50.618;7.024;2023-05-01T06:49:38;13.90;99.90
27164;DHT22;14685;50.618;7.024;2023-05-01T06:52:05;14.00;99.90
27164;DHT22;14685;50.618;7.024;2023-05-01T06:54:32;14.10;99.90
27164;DHT22;14685;50.618;7.024;2023-05-01T06:56:59;14.20;99.90
27164;DHT22;14685;50.618;7.024;2023-05-01T06:59:28;14.20;99.90
27164;DHT22;14685;50.618;7.024;2023-05-01T07:01:55;14.30;99.90
27164;DHT22;14685;50.618;7.024;2023-05-01T07:04:22;14.40;99.90
27164;DHT22;14685;50.618;7.024;2023-05-01T07:06:52;14.50;99.90
27164;DHT22;14685;50.618;7.024;2023-05-01T07:09:20;14.50;99.90
27164;DHT22;14685;50.618;7.024;2023-05-01T07:11:48;14.50;99.90
27164;DHT22;14685;50.618;7.024;2023-05-01T07:14:16;14.60;99.90
27164;DHT22;14685;50.618;7.024;2023-05-01T07:16:47;14.60;99.90
27164;DHT22;14685;50.618;7.024;2023-05-01T07:19:14;14.70;99.90
27164;DHT22;14685;50.618;7.024;2023-05-01T07:21:41;14.70;99.90
27164;DHT22;14685;50.618;7.024;2023-05-01T07:24:09;14.70;99.90
27164;DHT22;14685;50.618;7.024;2023-05-01T07:26:39;14.70;99.90
27164;DHT22;14685;50.618;7.024;2023-05-01T07:29:06;14.70;99.90
27164;DHT22;14685;50.618;7.024;2023-05-01T07:31:35;14.70;99.90
27164;DHT22;14685;50.618;7.024;2023-05-01T07:34:03;14.70;99.90
27164;DHT22;14685;50.618;7.024;2023-05-01T07:36:31;14.70;99.90
27164;DHT22;14685;50.618;7.024;2023-05-01T07:39:00;14.80;99.90
27164;DHT22;14685;50.618;7.024;2023-05-01T07:41:27;14.90;99.90
27164;DHT22;14685;50.618;7.024;2023-05-01T07:43:54;14.90;99.90
27164;DHT22;14685;50.618;7.024;2023-05-01T07:46:24;15.00;99.90
27164;DHT22;14685;50.618;7.024;2023-05-01T07:48:54;15.00;99.90
27164;DHT22;14685;50.618;7.024;2023-05-01T07:51:23;15.10;99.90
27164;DHT22;14685;50.618;7.024;2023-05-01T07:53:50;15.20;99.90
27164;DHT22;14685;50.618;7.024;2023-05-01T07:56:18;15.20;99.90
27164;DHT22;14685;50.618;7.024;2023-05-01T07:58:45;15.30;99.90
27164;DHT22;14685;50.618;7.024;2023-05-01T08:01:13;15.40;99.90
27164;DHT22;14685;50.618;7.024;2023-05-01T08:03:40;15.50;99.90
27164;DHT22;14685;50.618;7.024;2023-05-01T08:06:07;15.70;99.90
27164;DHT22;14685;50.618;7.024;2023-05-01T08:08:34;15.70;99.90
27164;DHT22;14685;50.618;7.024;2023-05-01T08:11:02;15.80;99.90
27164;DHT22;14685;50.618;7.024;2023-05-01T08:13:29;15.90;99.90
27164;DHT22;14685;50.618;7.024;2023-05-01T08:16:02;16.00;99.90
27164;DHT22;14685;50.618;7.024;2023-05-01T08:18:30;16.00;99.90
27164;DHT22;14685;50.618;7.024;2023-05-01T08:20:57;16.00;99.90
27164;DHT22;14685;50.618;7.024;2023-05-01T08:23:25;16.10;99.90
27164;DHT22;14685;50.618;7.024;2023-05-01T08:25:53;16.00;99.90
27164;DHT22;14685;50.618;7.024;2023-05-01T08:28:22;16.10;99.90
27164;DHT22;14685;50.618;7.024;2023-05-01T08:30:49;16.20;99.90
27164;DHT22;14685;50.618;7.024;2023-05-01T08:33:16;16.00;99.90
27164;DHT22;14685;50.618;7.024;2023-05-01T08:35:44;16.10;99.90
27164;DHT22;14685;50.618;7.024;2023-05-01T08:38:12;16.10;99.90
27164;DHT22;14685;50.618;7.024;2023-05-01T08:40:42;16.10;99.90
27164;DHT22;14685;50.618;7.024;2023-05-01T08:43:12;16.20;99.90
27164;DHT22;14685;50.618;7.024;2023-05-01T08:45:41;16.20;99.90
27164;DHT22;14685;50.618;7.024;2023-05-01T08:48:11;16.20;99.90
27164;DHT22;14685;50.618;7.024;2023-05-01T08:50:46;16.30;99.90
27164;DHT22;14685;50.618;7.024;2023-05-01T08:53:15;16.30;99.90
27164;DHT22;14685;50.618;7.024;2023-05-01T08:55:44;16.30;99.90
27164;DHT22;14685;50.618;7.024;2023-05-01T08:58:16;16.40;99.90
27164;DHT22;14685;50.618;7.024;2023-05-01T09:00:47;16.40;99.90
27164;DHT22;14685;50.618;7.024;2023-05-01T09:03:18;16.40;99.90
27164;DHT22;14685;50.618;7.024;2023-05-01T09:05:46;16.40;99.90
27164;DHT22;14685;50.618;7.024;2023-05-01T09:08:14;16.50;99.90
27164;DHT22;14685;50.618;7.024;2023-05-01T09:10:45;16.50;99.90
27164;DHT22;14685;50.618;7.024;2023-05-01T09:13:13;16.60;99.90
27164;DHT22;14685;50.618;7.024;2023-05-01T09:15:40;16.60;99.90
27164;DHT22;14685;50.618;7.024;2023-05-01T09:18:08;16.70;99.90
27164;DHT22;14685;50.618;7.024;2023-05-01T09:20:36;16.70;99.90
27164;DHT22;14685;50.618;7.024;2023-05-01T09:23:03;16.80;99.90
27164;DHT22;14685;50.618;7.024;2023-05-01T09:25:30;16.90;99.90
27164;DHT22;14685;50.618;7.024;2023-05-01T09:27:57;17.10;99.90
27164;DHT22;14685;50.618;7.024;2023-05-01T09:30:35;17.20;99.90
27164;DHT22;14685;50.618;7.024;2023-05-01T09:33:11;17.30;99.90
27164;DHT22;14685;50.618;7.024;2023-05-01T09:35:55;17.50;99.90
27164;DHT22;14685;50.618;7.024;2023-05-01T09:38:25;17.60;99.90
27164;DHT22;14685;50.618;7.024;2023-05-01T09:40:55;17.70;99.90
27164;DHT22;14685;50.618;7.024;2023-05-01T09:43:29;17.90;99.90
27164;DHT22;14685;50.618;7.024;2023-05-01T09:46:08;17.90;99.90
27164;DHT22;14685;50.618;7.024;2023-05-01T09:48:37;18.00;99.90
27164;DHT22;14685;50.618;7.024;2023-05-01T09:51:20;18.00;99.90
27164;DHT22;14685;50.618;7.024;2023-05-01T09:53:49;18.20;99.90
27164;DHT22;14685;50.618;7.024;2023-05-01T09:56:19;18.30;99.90
27164;DHT22;14685;50.618;7.024;2023-05-01T10:01:39;18.40;99.90
27164;DHT22;14685;50.618;7.024;2023-05-01T10:04:07;18.50;99.90
27164;DHT22;14685;50.618;7.024;2023-05-01T10:06:38;18.60;99.90
27164;DHT22;14685;50.618;7.024;2023-05-01T10:09:07;18.80;99.90
27164;DHT22;14685;50.618;7.024;2023-05-01T10:11:52;18.80;99.90
27164;DHT22;14685;50.618;7.024;2023-05-01T10:14:20;18.80;99.90
27164;DHT22;14685;50.618;7.024;2023-05-01T10:16:52;18.90;99.90
27164;DHT22;14685;50.618;7.024;2023-05-01T10:19:20;19.00;99.90
27164;DHT22;14685;50.618;7.024;2023-05-01T10:21:48;19.00;99.90
27164;DHT22;14685;50.618;7.024;2023-05-01T10:24:16;19.00;99.90
27164;DHT22;14685;50.618;7.024;2023-05-01T10:29:14;19.20;99.90
27164;DHT22;14685;50.618;7.024;2023-05-01T10:31:42;19.20;99.90
27164;DHT22;14685;50.618;7.024;2023-05-01T10:34:11;19.30;99.90
27164;DHT22;14685;50.618;7.024;2023-05-01T10:36:48;19.30;99.90
27164;DHT22;14685;50.618;7.024;2023-05-01T10:39:33;19.40;99.90
27164;DHT22;14685;50.618;7.024;2023-05-01T10:44:29;19.40;99.90
27164;DHT22;14685;50.618;7.024;2023-05-01T10:46:57;19.40;99.90
27164;DHT22;14685;50.618;7.024;2023-05-01T10:49:24;19.40;99.90
27164;DHT22;14685;50.618;7.024;2023-05-01T10:54:30;19.50;99.90
27164;DHT22;14685;50.618;7.024;2023-05-01T11:02:30;19.50;99.90
27164;DHT22;14685;50.618;7.024;2023-05-01T11:04:57;19.50;99.90
27164;DHT22;14685;50.618;7.024;2023-05-01T11:07:28;19.50;99.90
27164;DHT22;14685;50.618;7.024;2023-05-01T11:09:58;19.50;99.90
27164;DHT22;14685;50.618;7.024;2023-05-01T11:12:48;19.60;99.90
27164;DHT22;14685;50.618;7.024;2023-05-01T11:15:31;19.60;99.90
27164;DHT22;14685;50.618;7.024;2023-05-01T11:18:00;19.60;99.90
27164;DHT22;14685;50.618;7.024;2023-05-01T11:23:02;19.60;99.90
27164;DHT22;14685;50.618;7.024;2023-05-01T11:25:29;19.60;99.90
27164;DHT22;14685;50.618;7.024;2023-05-01T11:28:01;19.50;99.90
27164;DHT22;14685;50.618;7.024;2023-05-01T11:30:36;19.60;99.90
27164;DHT22;14685;50.618;7.024;2023-05-01T11:33:03;19.60;99.90
27164;DHT22;14685;50.618;7.024;2023-05-01T11:35:34;19.60;99.90
27164;DHT22;14685;50.618;7.024;2023-05-01T11:38:01;19.70;99.90
27164;DHT22;14685;50.618;7.024;2023-05-01T11:40:31;19.70;99.90
27164;DHT22;14685;50.618;7.024;2023-05-01T11:43:00;19.70;99.90
27164;DHT22;14685;50.618;7.024;2023-05-01T11:45:28;19.60;99.90
27164;DHT22;14685;50.618;7.024;2023-05-01T11:47:55;19.70;99.90
27164;DHT22;14685;50.618;7.024;2023-05-01T11:50:37;19.70;99.90
27164;DHT22;14685;50.618;7.024;2023-05-01T11:53:10;19.70;99.90
27164;DHT22;14685;50.618;7.024;2023-05-01T11:55:38;19.80;99.90
27164;DHT22;14685;50.618;7.024;2023-05-01T11:58:07;19.80;99.90
27164;DHT22;14685;50.618;7.024;2023-05-01T12:00:40;19.80;99.90
27164;DHT22;14685;50.618;7.024;2023-05-01T12:03:12;19.80;99.90
27164;DHT22;14685;50.618;7.024;2023-05-01T12:05:42;19.90;99.90
27164;DHT22;14685;50.618;7.024;2023-05-01T12:08:21;19.90;99.90
27164;DHT22;14685;50.618;7.024;2023-05-01T12:10:54;19.80;99.90
27164;DHT22;14685;50.618;7.024;2023-05-01T12:13:23;19.90;99.90
27164;DHT22;14685;50.618;7.024;2023-05-01T12:15:53;19.80;99.90
27164;DHT22;14685;50.618;7.024;2023-05-01T12:18:20;19.80;99.90
27164;DHT22;14685;50.618;7.024;2023-05-01T12:20:52;19.80;99.90
27164;DHT22;14685;50.618;7.024;2023-05-01T12:23:33;19.80;99.90
27164;DHT22;14685;50.618;7.024;2023-05-01T12:26:00;19.80;99.90
27164;DHT22;14685;50.618;7.024;2023-05-01T12:28:29;19.80;99.90
27164;DHT22;14685;50.618;7.024;2023-05-01T12:31:00;19.80;99.90
27164;DHT22;14685;50.618;7.024;2023-05-01T12:33:32;19.80;99.90
27164;DHT22;14685;50.618;7.024;2023-05-01T12:36:08;19.80;99.90
27164;DHT22;14685;50.618;7.024;2023-05-01T12:38:37;19.90;99.90
27164;DHT22;14685;50.618;7.024;2023-05-01T12:41:04;19.90;99.90
27164;DHT22;14685;50.618;7.024;2023-05-01T12:43:36;19.80;99.90
27164;DHT22;14685;50.618;7.024;2023-05-01T12:46:04;19.90;99.90
27164;DHT22;14685;50.618;7.024;2023-05-01T12:48:32;19.90;99.90
27164;DHT22;14685;50.618;7.024;2023-05-01T12:51:04;19.90;99.90
27164;DHT22;14685;50.618;7.024;2023-05-01T12:53:33;19.80;99.90
27164;DHT22;14685;50.618;7.024;2023-05-01T12:56:00;19.80;99.90
27164;DHT22;14685;50.618;7.024;2023-05-01T12:58:36;19.80;99.90
27164;DHT22;14685;50.618;7.024;2023-05-01T13:01:03;19.70;99.90
27164;DHT22;14685;50.618;7.024;2023-05-01T13:03:32;19.60;99.90
27164;DHT22;14685;50.618;7.024;2023-05-01T13:06:00;19.60;99.90
27164;DHT22;14685;50.618;7.024;2023-05-01T13:10:59;19.40;99.90
27164;DHT22;14685;50.618;7.024;2023-05-01T13:13:28;19.40;99.90
27164;DHT22;14685;50.618;7.024;2023-05-01T13:16:07;19.30;99.90
27164;DHT22;14685;50.618;7.024;2023-05-01T13:18:50;19.30;99.90
27164;DHT22;14685;50.618;7.024;2023-05-01T13:21:21;19.30;99.90
27164;DHT22;14685;50.618;7.024;2023-05-01T13:23:57;19.30;99.90
27164;DHT22;14685;50.618;7.024;2023-05-01T13:26:26;19.20;99.90
27164;DHT22;14685;50.618;7.024;2023-05-01T13:29:03;19.10;99.90
27164;DHT22;14685;50.618;7.024;2023-05-01T13:31:31;19.10;99.90
27164;DHT22;14685;50.618;7.024;2023-05-01T13:34:00;19.10;99.90
27164;DHT22;14685;50.618;7.024;2023-05-01T13:36:32;19.00;99.90
27164;DHT22;14685;50.618;7.024;2023-05-01T13:39:00;18.90;99.90
27164;DHT22;14685;50.618;7.024;2023-05-01T13:41:47;18.90;99.90
27164;DHT22;14685;50.618;7.024;2023-05-01T13:44:16;18.90;99.90
27164;DHT22;14685;50.618;7.024;2023-05-01T13:46:44;18.90;99.90
27164;DHT22;14685;50.618;7.024;2023-05-01T13:49:19;18.80;99.90
27164;DHT22;14685;50.618;7.024;2023-05-01T13:51:48;18.90;99.90
27164;DHT22;14685;50.618;7.024;2023-05-01T13:54:16;18.80;99.90
27164;DHT22;14685;50.618;7.024;2023-05-01T13:56:46;18.90;99.90
27164;DHT22;14685;50.618;7.024;2023-05-01T13:59:13;18.90;99.90
27164;DHT22;14685;50.618;7.024;2023-05-01T14:01:41;18.90;99.90
27164;DHT22;14685;50.618;7.024;2023-05-01T14:04:17;18.90;99.90
27164;DHT22;14685;50.618;7.024;2023-05-01T14:06:47;18.80;99.90
27164;DHT22;14685;50.618;7.024;2023-05-01T14:09:34;18.90;99.90
27164;DHT22;14685;50.618;7.024;2023-05-01T14:12:02;18.80;99.90
27164;DHT22;14685;50.618;7.024;2023-05-01T14:14:34;18.90;99.90
27164;DHT22;14685;50.618;7.024;2023-05-01T14:17:01;18.90;99.90
27164;DHT22;14685;50.618;7.024;2023-05-01T14:19:31;18.90;99.90
27164;DHT22;14685;50.618;7.024;2023-05-01T14:22:01;18.90;99.90
27164;DHT22;14685;50.618;7.024;2023-05-01T14:24:29;18.90;99.90
27164;DHT22;14685;50.618;7.024;2023-05-01T14:26:56;18.90;99.90
27164;DHT22;14685;50.618;7.024;2023-05-01T14:29:27;18.90;99.90
27164;DHT22;14685;50.618;7.024;2023-05-01T14:31:56;18.90;99.90
27164;DHT22;14685;50.618;7.024;2023-05-01T14:34:29;18.90;99.90
27164;DHT22;14685;50.618;7.024;2023-05-01T14:36:56;18.90;99.90
27164;DHT22;14685;50.618;7.024;2023-05-01T14:39:31;19.00;99.90
27164;DHT22;14685;50.618;7.024;2023-05-01T14:41:59;19.00;99.90
27164;DHT22;14685;50.618;7.024;2023-05-01T14:44:26;19.10;99.90
27164;DHT22;14685;50.618;7.024;2023-05-01T14:46:56;19.10;99.90
27164;DHT22;14685;50.618;7.024;2023-05-01T14:49:24;19.00;99.90
27164;DHT22;14685;50.618;7.024;2023-05-01T14:51:52;19.00;99.90
27164;DHT22;14685;50.618;7.024;2023-05-01T14:54:20;19.00;99.90
27164;DHT22;14685;50.618;7.024;2023-05-01T14:56:47;19.00;99.90
27164;DHT22;14685;50.618;7.024;2023-05-01T14:59:14;19.00;99.90
27164;DHT22;14685;50.618;7.024;2023-05-01T15:01:41;19.00;99.90
27164;DHT22;14685;50.618;7.024;2023-05-01T15:04:10;19.10;99.90
27164;DHT22;14685;50.618;7.024;2023-05-01T15:06:41;19.00;99.90
27164;DHT22;14685;50.618;7.024;2023-05-01T15:09:09;19.00;99.90
27164;DHT22;14685;50.618;7.024;2023-05-01T15:11:39;19.10;99.90
27164;DHT22;14685;50.618;7.024;2023-05-01T15:14:06;19.00;99.90
27164;DHT22;14685;50.618;7.024;2023-05-01T15:16:35;19.00;99.90
27164;DHT22;14685;50.618;7.024;2023-05-01T15:19:02;19.10;99.90
27164;DHT22;14685;50.618;7.024;2023-05-01T15:21:29;19.00;99.90
27164;DHT22;14685;50.618;7.024;2023-05-01T15:23:59;19.00;99.90
27164;DHT22;14685;50.618;7.024;2023-05-01T15:26:26;19.00;99.90
27164;DHT22;14685;50.618;7.024;2023-05-01T15:28:53;19.00;99.90
27164;DHT22;14685;50.618;7.024;2023-05-01T15:31:19;19.00;99.90
27164;DHT22;14685;50.618;7.024;2023-05-01T15:33:47;18.90;99.90
27164;DHT22;14685;50.618;7.024;2023-05-01T15:36:14;18.90;99.90
27164;DHT22;14685;50.618;7.024;2023-05-01T15:38:40;18.90;99.90
27164;DHT22;14685;50.618;7.024;2023-05-01T15:41:07;18.90;99.90
27164;DHT22;14685;50.618;7.024;2023-05-01T15:43:34;18.80;99.90
27164;DHT22;14685;50.618;7.024;2023-05-01T15:46:01;18.80;99.90
27164;DHT22;14685;50.618;7.024;2023-05-01T15:48:28;18.80;99.90
27164;DHT22;14685;50.618;7.024;2023-05-01T15:50:55;18.70;99.90
27164;DHT22;14685;50.618;7.024;2023-05-01T15:53:22;18.70;99.90
27164;DHT22;14685;50.618;7.024;2023-05-01T15:55:56;18.60;99.90
27164;DHT22;14685;50.618;7.024;2023-05-01T15:58:23;18.60;99.90
27164;DHT22;14685;50.618;7.024;2023-05-01T16:00:50;18.60;99.90
27164;DHT22;14685;50.618;7.024;2023-05-01T16:03:17;18.50;99.90
27164;DHT22;14685;50.618;7.024;2023-05-01T16:05:45;18.50;99.90
27164;DHT22;14685;50.618;7.024;2023-05-01T16:08:13;18.50;99.90
27164;DHT22;14685;50.618;7.024;2023-05-01T16:10:42;18.40;99.90
27164;DHT22;14685;50.618;7.024;2023-05-01T16:13:11;18.40;99.90
27164;DHT22;14685;50.618;7.024;2023-05-01T16:15:38;18.30;99.90
27164;DHT22;14685;50.618;7.024;2023-05-01T16:18:05;18.30;99.90